Terminal Aerodrome Forecast
Issued by NWS

Home | Current Version | Previous Version | Text Only | Print | Product List | Glossary On
Versions: 1 2 3 4 5 6 7 8 9 10 11 12 13 14 15 16 17 18
000
FTUS44 KOHX 311858 AAA
TAFCKV
TAF AMD
KCKV 311858Z 3119/0118 34008KT P6SM VCTS SCT040CB
     FM010100 36005KT P6SM BKN150
     FM010700 01004KT 5SM BR OVC015=

USA.gov is the U.S. government's official web portal to all federal, state and local government web resources and services.